Greater Rochester International Airport
KROC : now visible

Airfield :











YOU CAN JOIN US ON...

 
LOGIN :

Register | Disclaimer

   EN    FR    IT 

 









Legend :    VFR   Marginal VFR   IFR   Intensive IFR   Very Intensive IFR
Visi :
Ceiling :
>= 8 km
>= 3000ft
5 to 8 km
1000 to 3000 ft
1500m to 5 km
500 to 1000 ft
800 to 1500m
200 to 500 ft
< 800m
< 200 ft
Symbols :   Thunderstorms  Fog  Heavy snow  Heavy precipitations  Wind > 20 kt






- Airport Elevation : 559 ft
- IATA code : ROC


KROC - Greater Rochester International

CURRENT METAR :
  • 231654Z 31015KT 5SM -SN SCT023 BKN032 M07/M12 A3021 RMK AO2 SLP244 P0000 T10721117

EXPIRED METARs :
  • 231643Z 30014G22KT 9SM -SN SCT023 BKN032 M07/M12 A3022 RMK AO2 P0000 T10721117
  • 231601Z 32014G20KT 6SM -SN FEW018 BKN025 OVC036 M07/M11 A3022 RMK AO2 P0000 T10721111
  • 231554Z 31015KT 1 1/4SM -SN OVC014 M07/M11 A3023 RMK AO2 SLP248 P0001 T10721106
  • 231501Z 32008KT 1 1/4SM R04/3500VP6000FT -SN OVC014 M07/M09 A3021 RMK AO2 P0000 T10721094
  • 231454Z 32010KT 3/4SM R04/5000VP6000FT -SN VV013 M07/M09 A3021 RMK AO2 SLP243 SNINCR 1/5 P0000 60001 T10721094 53027

TAF KROC
Valid from the 23 at 15:00 until the 24 at 12:00 UTC


231505Z 2315/2412 32009KT 1SM -SN OVC015
FM231800 30012G19KT 4SM -SN BKN025
FM232000 29012KT P6SM BKN040
FM240600 30006KT P6SM VCSH BKN025
KZOB FIR / North America



MET'MAP, your aeronautical weather chart ! - Copyright ORBIFLY December 2007 - Disclaimer

ORBIFLY MET'MAP TEAM :

Programming & Development : Alexandra Zaïnal
Concept & original design : Baudouin d'Aumeries
Assistance for programming : Marc-Olivier Méhu
Technical & hardware support : Manuel Goepfert

Contact : metmap@orbifly.com




SOURCES & CREDITS :

   NOAA       Earth
Advisory